createdAt,value
2017-03-18T00:00:05.167Z,5.33
2017-03-18T00:01:05.936Z,5.41
2017-03-18T00:02:06.700Z,5.28
2017-03-18T00:03:07.466Z,5.23
2017-03-18T00:04:08.231Z,5.32
2017-03-18T00:05:09.244Z,5.21
2017-03-18T00:06:10.014Z,5.15
2017-03-18T00:07:10.778Z,5.18
2017-03-18T00:08:11.540Z,5.14
2017-03-18T00:09:12.304Z,5.14
2017-03-18T00:10:13.366Z,5.14
2017-03-18T00:11:14.132Z,5.14
2017-03-18T00:12:14.896Z,5.14
2017-03-18T00:13:15.660Z,5.12
2017-03-18T00:14:16.424Z,5.20
2017-03-18T00:15:17.437Z,5.14
2017-03-18T00:16:18.201Z,5.12
2017-03-18T00:17:18.970Z,5.11
2017-03-18T00:18:19.732Z,5.15
2017-03-18T00:19:20.499Z,5.15
2017-03-18T00:20:21.509Z,5.17
2017-03-18T00:21:22.273Z,5.15
2017-03-18T00:22:23.038Z,5.15
2017-03-18T00:23:23.803Z,5.10
2017-03-18T00:24:24.570Z,5.14
2017-03-18T00:25:25.582Z,5.14
2017-03-18T00:26:26.347Z,5.12
2017-03-18T00:27:27.111Z,5.18
2017-03-18T00:28:27.874Z,5.10
2017-03-18T00:29:28.638Z,5.05
2017-03-18T00:30:29.656Z,5.08
2017-03-18T00:31:30.419Z,5.12
2017-03-18T00:32:31.188Z,5.17
2017-03-18T00:33:31.953Z,5.12
2017-03-18T00:34:32.719Z,5.12
2017-03-18T00:35:33.732Z,5.12
2017-03-18T00:36:34.496Z,5.11
2017-03-18T00:37:35.262Z,5.10
2017-03-18T00:38:36.030Z,5.05
2017-03-18T00:39:36.793Z,5.20
2017-03-18T00:40:37.812Z,5.07
2017-03-18T00:41:38.575Z,5.11
2017-03-18T00:42:39.337Z,5.10
2017-03-18T00:43:40.103Z,5.11
2017-03-18T00:44:40.872Z,4.94
2017-03-18T00:45:41.886Z,5.10
2017-03-18T00:46:42.650Z,5.05
2017-03-18T00:47:43.419Z,5.12
2017-03-18T00:48:44.182Z,5.12
2017-03-18T00:49:44.949Z,5.04
2017-03-18T00:50:45.965Z,5.11
2017-03-18T00:51:46.916Z,5.08
2017-03-18T00:52:47.680Z,5.11
2017-03-18T00:53:48.445Z,5.15
2017-03-18T00:54:49.210Z,5.11
2017-03-18T00:55:50.229Z,5.11
2017-03-18T00:56:50.995Z,5.08
2017-03-18T00:57:51.762Z,5.14
2017-03-18T00:58:52.564Z,5.12
2017-03-18T00:59:53.376Z,5.08
2017-03-18T01:00:54.393Z,5.12
2017-03-18T01:01:55.161Z,5.18
2017-03-18T01:02:55.922Z,5.18
2017-03-18T01:03:56.686Z,5.21
2017-03-18T01:04:57.454Z,5.18
2017-03-18T01:05:58.466Z,5.15
2017-03-18T01:06:59.230Z,5.18
2017-03-18T01:07:59.997Z,5.20
2017-03-18T01:09:00.766Z,5.20
2017-03-18T01:10:01.530Z,5.29
2017-03-18T01:11:02.548Z,5.25
2017-03-18T01:12:03.315Z,5.32
2017-03-18T01:13:04.075Z,5.30
2017-03-18T01:14:04.839Z,5.35
2017-03-18T01:15:05.603Z,5.30
2017-03-18T01:16:06.619Z,5.41
2017-03-18T01:17:07.382Z,5.36
2017-03-18T01:18:08.144Z,5.35
2017-03-18T01:19:08.909Z,5.38
2017-03-18T01:20:09.674Z,5.41
2017-03-18T01:21:10.688Z,5.43
2017-03-18T01:22:11.454Z,5.35
2017-03-18T01:23:12.218Z,5.41
2017-03-18T01:24:12.986Z,5.36
2017-03-18T01:25:13.752Z,5.35
2017-03-18T01:26:14.768Z,5.44
2017-03-18T01:27:15.532Z,5.30
2017-03-18T01:28:16.298Z,5.35
2017-03-18T01:29:17.063Z,5.38
2017-03-18T01:30:17.825Z,5.41
2017-03-18T01:31:18.845Z,5.38
2017-03-18T01:32:19.607Z,5.33
2017-03-18T01:33:20.377Z,5.43
2017-03-18T01:34:21.141Z,5.41
2017-03-18T01:35:21.904Z,5.41
2017-03-18T01:36:22.920Z,5.46
2017-03-18T01:37:23.685Z,5.39
2017-03-18T01:38:24.449Z,5.51
2017-03-18T01:39:25.215Z,5.48
2017-03-18T01:40:25.977Z,5.44
2017-03-18T01:41:26.992Z,5.48
2017-03-18T01:42:27.761Z,5.48
2017-03-18T01:43:28.527Z,5.47
2017-03-18T01:44:29.295Z,5.47
2017-03-18T01:45:30.058Z,5.61
2017-03-18T01:46:31.073Z,5.62
2017-03-18T01:47:31.837Z,5.53
2017-03-18T01:48:32.786Z,5.65
2017-03-18T01:49:33.549Z,5.61
2017-03-18T01:50:34.313Z,5.66
2017-03-18T01:51:35.331Z,5.68
2017-03-18T01:52:36.096Z,5.75
2017-03-18T01:53:36.861Z,5.69
2017-03-18T01:54:37.629Z,5.72
2017-03-18T01:55:38.394Z,5.79
2017-03-18T01:56:39.415Z,5.72
2017-03-18T01:57:40.179Z,5.82
2017-03-18T01:58:40.944Z,5.83
2017-03-18T01:59:41.707Z,5.79
2017-03-18T02:00:42.474Z,5.76
2017-03-18T02:01:43.491Z,5.83
2017-03-18T02:02:44.255Z,5.84
2017-03-18T02:03:45.018Z,5.79
2017-03-18T02:04:45.787Z,5.90
2017-03-18T02:05:46.740Z,5.89
2017-03-18T02:06:47.756Z,5.86
2017-03-18T02:07:48.524Z,5.83
2017-03-18T02:08:49.286Z,5.84
2017-03-18T02:09:50.050Z,5.89
2017-03-18T02:10:50.818Z,5.91
2017-03-18T02:11:51.833Z,5.94
2017-03-18T02:12:52.597Z,5.91
2017-03-18T02:13:53.361Z,5.94
2017-03-18T02:14:54.129Z,5.94
2017-03-18T02:15:54.897Z,5.97
2017-03-18T02:16:55.911Z,6.02
2017-03-18T02:17:56.673Z,6.01
2017-03-18T02:18:57.438Z,6.07
2017-03-18T02:19:58.206Z,6.05
2017-03-18T02:20:58.967Z,5.94
2017-03-18T02:21:59.984Z,5.94
2017-03-18T02:23:00.751Z,6.09
2017-03-18T02:24:01.519Z,5.98
2017-03-18T02:25:02.284Z,6.11
2017-03-18T02:26:03.048Z,6.08
2017-03-18T02:27:04.066Z,6.07
2017-03-18T02:28:04.832Z,6.07
2017-03-18T02:29:05.596Z,6.04
2017-03-18T02:30:06.363Z,6.14
2017-03-18T02:31:07.126Z,6.05
2017-03-18T02:32:08.142Z,6.04
2017-03-18T02:33:08.906Z,6.08
2017-03-18T02:34:09.670Z,6.09
2017-03-18T02:35:10.437Z,6.07
2017-03-18T02:36:11.206Z,6.16
2017-03-18T02:37:12.221Z,6.11
2017-03-18T02:38:13.175Z,6.19
2017-03-18T02:39:13.939Z,6.19
2017-03-18T02:40:14.706Z,6.17
2017-03-18T02:41:15.472Z,6.12
2017-03-18T02:42:16.489Z,6.22
2017-03-18T02:43:17.254Z,6.16
2017-03-18T02:44:18.019Z,6.19
2017-03-18T02:45:18.789Z,6.09
2017-03-18T02:46:19.550Z,6.17
2017-03-18T02:47:20.564Z,6.14
2017-03-18T02:48:21.330Z,6.19
2017-03-18T02:49:22.096Z,6.17
2017-03-18T02:50:23.046Z,6.24
2017-03-18T02:51:23.812Z,6.22
2017-03-18T02:52:24.829Z,6.19
2017-03-18T02:53:25.591Z,6.19
2017-03-18T02:54:26.360Z,6.24
2017-03-18T02:55:27.126Z,6.20
2017-03-18T02:56:27.896Z,6.22
2017-03-18T02:57:28.910Z,6.14
2017-03-18T02:58:29.678Z,6.28
2017-03-18T02:59:30.445Z,6.27
2017-03-18T03:00:31.210Z,6.24
2017-03-18T03:01:31.975Z,6.22
2017-03-18T03:02:32.986Z,6.28
2017-03-18T03:03:33.749Z,6.22
2017-03-18T03:04:34.512Z,6.26
2017-03-18T03:05:35.277Z,6.16
2017-03-18T03:06:36.040Z,6.35
2017-03-18T03:07:37.105Z,6.38
2017-03-18T03:08:37.869Z,6.22
2017-03-18T03:09:38.635Z,6.35
2017-03-18T03:10:39.646Z,6.35
2017-03-18T03:11:40.413Z,6.39
2017-03-18T03:12:41.173Z,6.33
2017-03-18T03:13:41.938Z,6.31
2017-03-18T03:14:42.700Z,6.31
2017-03-18T03:15:43.715Z,6.31
2017-03-18T03:16:44.481Z,6.36
2017-03-18T03:17:45.440Z,6.36
2017-03-18T03:18:46.198Z,6.41
2017-03-18T03:19:46.963Z,6.39
2017-03-18T03:20:48.169Z,6.42
2017-03-18T03:21:48.935Z,6.35
2017-03-18T03:22:49.699Z,6.45
2017-03-18T03:23:50.465Z,6.38
2017-03-18T03:24:51.232Z,6.45
2017-03-18T03:25:52.296Z,6.48
2017-03-18T03:26:53.065Z,6.46
2017-03-18T03:27:53.823Z,6.36
2017-03-18T03:28:54.589Z,6.52
2017-03-18T03:29:55.353Z,6.42
2017-03-18T03:30:56.415Z,6.46
2017-03-18T03:31:57.176Z,6.38
2017-03-18T03:32:57.942Z,6.41
2017-03-18T03:33:58.710Z,6.49
2017-03-18T03:34:59.468Z,6.44
2017-03-18T03:36:00.483Z,6.48
2017-03-18T03:37:01.253Z,6.49
2017-03-18T03:38:02.015Z,6.57
2017-03-18T03:39:02.775Z,6.56
2017-03-18T03:40:03.539Z,6.52
2017-03-18T03:41:04.551Z,6.56
2017-03-18T03:42:05.316Z,6.56
2017-03-18T03:43:06.082Z,6.69
2017-03-18T03:44:06.846Z,6.63
2017-03-18T03:45:07.608Z,6.67
2017-03-18T03:46:08.621Z,6.67
2017-03-18T03:47:09.386Z,6.67
2017-03-18T03:48:10.154Z,6.67
2017-03-18T03:49:10.915Z,6.64
2017-03-18T03:50:11.680Z,6.66
2017-03-18T03:51:12.691Z,6.70
2017-03-18T03:52:13.455Z,6.72
2017-03-18T03:53:14.221Z,6.75
2017-03-18T03:54:14.983Z,6.72
2017-03-18T03:55:15.750Z,6.70
2017-03-18T03:56:16.763Z,6.74
2017-03-18T03:57:17.529Z,6.75
2017-03-18T03:58:18.294Z,6.74
2017-03-18T03:59:19.057Z,6.77
2017-03-18T04:00:19.820Z,6.77
2017-03-18T04:01:20.832Z,6.79
2017-03-18T04:02:21.593Z,6.77
2017-03-18T04:03:22.360Z,6.81
2017-03-18T04:04:23.128Z,6.79
2017-03-18T04:05:23.894Z,6.92
2017-03-18T04:06:24.903Z,6.84
2017-03-18T04:07:25.666Z,6.89
2017-03-18T04:08:26.429Z,6.92
2017-03-18T04:09:27.257Z,6.92
2017-03-18T04:10:27.988Z,6.88
2017-03-18T04:11:29.006Z,6.87
2017-03-18T04:12:29.770Z,6.99
2017-03-18T04:13:30.536Z,6.99
2017-03-18T04:14:31.300Z,6.99
2017-03-18T04:15:32.065Z,6.95
2017-03-18T04:16:33.081Z,7.00
2017-03-18T04:17:33.847Z,6.99
2017-03-18T04:18:34.610Z,6.97
2017-03-18T04:19:35.375Z,6.96
2017-03-18T04:20:36.139Z,7.00
2017-03-18T04:21:37.151Z,6.97
2017-03-18T04:22:37.915Z,7.02
2017-03-18T04:23:38.677Z,7.10
2017-03-18T04:24:39.445Z,7.10
2017-03-18T04:25:40.210Z,6.99
2017-03-18T04:26:41.223Z,7.17
2017-03-18T04:27:41.985Z,7.11
2017-03-18T04:28:42.749Z,7.11
2017-03-18T04:29:43.513Z,7.06
2017-03-18T04:30:44.276Z,7.21
2017-03-18T04:31:45.292Z,7.20
2017-03-18T04:32:46.059Z,7.21
2017-03-18T04:33:46.824Z,7.11
2017-03-18T04:34:47.588Z,7.20
2017-03-18T04:35:48.352Z,7.23
2017-03-18T04:36:49.362Z,7.29
2017-03-18T04:37:50.124Z,7.18
2017-03-18T04:38:50.888Z,7.23
2017-03-18T04:39:51.656Z,7.21
2017-03-18T04:40:52.420Z,7.25
2017-03-18T04:41:53.438Z,7.23
2017-03-18T04:42:54.205Z,7.25
2017-03-18T04:43:54.965Z,7.28
2017-03-18T04:44:55.729Z,7.28
2017-03-18T04:45:56.493Z,7.39
2017-03-18T04:46:57.510Z,7.32
2017-03-18T04:47:58.280Z,7.33
2017-03-18T04:48:59.040Z,7.35
2017-03-18T04:49:59.990Z,7.39
2017-03-18T04:51:00.753Z,7.39
2017-03-18T04:52:01.767Z,7.36
2017-03-18T04:53:02.531Z,7.40
2017-03-18T04:54:03.478Z,7.40
2017-03-18T04:55:04.241Z,7.43
2017-03-18T04:56:05.008Z,7.43
2017-03-18T04:57:06.020Z,7.47
2017-03-18T04:58:06.783Z,7.50
2017-03-18T04:59:07.549Z,7.47
2017-03-18T05:00:08.309Z,7.40
2017-03-18T05:01:09.074Z,7.42
2017-03-18T05:02:10.086Z,7.42
2017-03-18T05:03:10.851Z,7.43
2017-03-18T05:04:11.618Z,7.40
2017-03-18T05:05:12.383Z,7.48
2017-03-18T05:06:13.147Z,7.36
2017-03-18T05:07:14.160Z,7.48
2017-03-18T05:08:14.923Z,7.54
2017-03-18T05:09:15.687Z,7.56
2017-03-18T05:10:16.450Z,7.51
2017-03-18T05:11:17.212Z,7.51
2017-03-18T05:12:18.229Z,7.54
2017-03-18T05:13:18.994Z,7.56
2017-03-18T05:14:19.756Z,7.54
2017-03-18T05:15:20.521Z,7.53
2017-03-18T05:16:21.287Z,7.63
2017-03-18T05:17:22.304Z,7.69
2017-03-18T05:18:23.071Z,7.54
2017-03-18T05:19:23.833Z,7.69
2017-03-18T05:20:24.599Z,7.67
2017-03-18T05:21:25.363Z,7.60
2017-03-18T05:22:26.378Z,7.66
2017-03-18T05:23:27.144Z,7.63
2017-03-18T05:24:27.914Z,7.70
2017-03-18T05:25:28.679Z,7.72
2017-03-18T05:26:29.445Z,7.70
2017-03-18T05:27:30.510Z,7.73
2017-03-18T05:28:31.274Z,7.73
2017-03-18T05:29:32.043Z,7.69
2017-03-18T05:30:32.811Z,7.73
2017-03-18T05:31:33.576Z,7.73
2017-03-18T05:32:34.591Z,7.73
2017-03-18T05:33:35.356Z,7.79
2017-03-18T05:34:36.127Z,7.83
2017-03-18T05:35:36.893Z,7.82
2017-03-18T05:36:37.659Z,7.82
2017-03-18T05:37:38.675Z,7.88
2017-03-18T05:38:39.441Z,7.87
2017-03-18T05:39:40.206Z,7.91
2017-03-18T05:40:40.972Z,7.91
2017-03-18T05:41:41.735Z,7.94
2017-03-18T05:42:42.752Z,7.97
2017-03-18T05:43:43.519Z,7.98
2017-03-18T05:44:44.284Z,8.01
2017-03-18T05:45:45.052Z,8.09
2017-03-18T05:46:45.819Z,8.06
2017-03-18T05:47:46.831Z,8.16
2017-03-18T05:48:47.603Z,8.13
2017-03-18T05:49:48.366Z,8.13
2017-03-18T05:50:49.131Z,8.00
2017-03-18T05:51:49.898Z,8.13
2017-03-18T05:52:50.915Z,8.12
2017-03-18T05:53:51.684Z,8.10
2017-03-18T05:54:52.453Z,8.13
2017-03-18T05:55:53.221Z,8.12
2017-03-18T05:56:53.989Z,8.16
2017-03-18T05:57:55.006Z,8.13
2017-03-18T05:58:55.768Z,8.19
2017-03-18T05:59:56.535Z,8.24
2017-03-18T06:00:57.302Z,8.23
2017-03-18T06:01:58.071Z,8.23
2017-03-18T06:02:59.090Z,8.23
2017-03-18T06:03:59.860Z,8.36
2017-03-18T06:05:00.627Z,8.34
2017-03-18T06:06:01.394Z,8.37
2017-03-18T06:07:02.162Z,8.33
2017-03-18T06:08:03.179Z,8.46
2017-03-18T06:09:03.949Z,8.45
2017-03-18T06:10:04.714Z,8.44
2017-03-18T06:11:05.485Z,8.44
2017-03-18T06:12:06.253Z,8.51
2017-03-18T06:13:07.456Z,8.60
2017-03-18T06:14:08.223Z,8.60
2017-03-18T06:15:08.992Z,8.61
2017-03-18T06:16:09.758Z,8.61
2017-03-18T06:17:10.524Z,8.64
2017-03-18T06:18:11.545Z,8.66
2017-03-18T06:19:12.314Z,8.69
2017-03-18T06:20:13.082Z,8.73
2017-03-18T06:21:13.853Z,8.73
2017-03-18T06:22:14.625Z,8.74
2017-03-18T06:23:15.645Z,8.82
2017-03-18T06:24:16.411Z,8.85
2017-03-18T06:25:17.180Z,8.84
2017-03-18T06:26:17.951Z,8.97
2017-03-18T06:27:18.722Z,8.87
2017-03-18T06:28:19.790Z,8.92
2017-03-18T06:29:20.561Z,9.03
2017-03-18T06:30:21.332Z,9.00
2017-03-18T06:31:22.098Z,9.10
2017-03-18T06:32:22.867Z,9.08
2017-03-18T06:33:23.892Z,9.10
2017-03-18T06:34:24.662Z,9.10
2017-03-18T06:35:25.430Z,9.13
2017-03-18T06:36:26.203Z,9.08
2017-03-18T06:37:26.973Z,9.10
2017-03-18T06:38:27.994Z,9.14
2017-03-18T06:39:28.768Z,9.16
2017-03-18T06:40:29.539Z,9.11
2017-03-18T06:41:30.312Z,9.22
2017-03-18T06:42:31.082Z,9.26
2017-03-18T06:43:32.103Z,9.26
2017-03-18T06:44:32.875Z,9.29
2017-03-18T06:45:33.647Z,9.28
2017-03-18T06:46:34.416Z,9.26
2017-03-18T06:47:35.186Z,9.29
2017-03-18T06:48:36.204Z,9.32
2017-03-18T06:49:36.971Z,9.41
2017-03-18T06:50:37.740Z,9.40
2017-03-18T06:51:38.509Z,9.32
2017-03-18T06:52:39.279Z,9.31
2017-03-18T06:53:40.302Z,9.34
2017-03-18T06:54:41.076Z,9.37
2017-03-18T06:55:41.844Z,9.39
2017-03-18T06:56:42.615Z,9.36
2017-03-18T06:57:43.387Z,9.41
2017-03-18T06:58:44.408Z,9.40
2017-03-18T06:59:45.179Z,9.43
2017-03-18T07:00:45.948Z,9.40
2017-03-18T07:01:46.722Z,9.44
2017-03-18T07:02:47.491Z,9.37
2017-03-18T07:03:48.513Z,9.40
2017-03-18T07:04:49.279Z,9.54
2017-03-18T07:05:50.048Z,9.56
2017-03-18T07:06:50.819Z,9.58
2017-03-18T07:07:51.591Z,9.56
2017-03-18T07:08:52.615Z,9.55
2017-03-18T07:09:53.383Z,9.55
2017-03-18T07:10:54.153Z,9.51
2017-03-18T07:11:54.923Z,9.54
2017-03-18T07:12:55.696Z,9.64
2017-03-18T07:13:56.716Z,9.55
2017-03-18T07:14:57.483Z,9.55
2017-03-18T07:15:58.257Z,9.50
2017-03-18T07:16:59.028Z,9.59
2017-03-18T07:17:59.800Z,9.50
2017-03-18T07:19:00.819Z,9.61
2017-03-18T07:20:01.592Z,9.65
2017-03-18T07:21:02.360Z,9.62
2017-03-18T07:22:03.133Z,9.61
2017-03-18T07:23:03.905Z,9.61
2017-03-18T07:24:04.977Z,9.62
2017-03-18T07:25:05.747Z,9.62
2017-03-18T07:26:06.521Z,9.61
2017-03-18T07:27:07.289Z,9.58
2017-03-18T07:28:08.063Z,9.56
2017-03-18T07:29:09.079Z,9.61
2017-03-18T07:30:09.849Z,9.66
2017-03-18T07:31:10.622Z,9.65
2017-03-18T07:32:11.392Z,9.61
2017-03-18T07:33:12.166Z,9.61
2017-03-18T07:34:13.185Z,9.65
2017-03-18T07:35:13.961Z,9.68
2017-03-18T07:36:14.732Z,9.72
2017-03-18T07:37:15.507Z,9.62
2017-03-18T07:38:16.274Z,9.74
2017-03-18T07:39:17.347Z,9.65
2017-03-18T07:40:18.122Z,9.66
2017-03-18T07:41:18.892Z,9.62
2017-03-18T07:42:19.663Z,9.65
2017-03-18T07:43:20.433Z,9.61
2017-03-18T07:44:21.454Z,9.61
2017-03-18T07:45:22.228Z,9.66
2017-03-18T07:46:23.002Z,9.72
2017-03-18T07:47:23.777Z,9.68
2017-03-18T07:48:24.547Z,9.68
2017-03-18T07:49:25.619Z,9.72
2017-03-18T07:50:26.390Z,9.69
2017-03-18T07:51:27.163Z,9.69
2017-03-18T07:52:27.932Z,9.61
2017-03-18T07:53:28.704Z,9.68
2017-03-18T07:54:29.726Z,9.64
2017-03-18T07:55:30.497Z,9.66
2017-03-18T07:56:31.269Z,9.66
2017-03-18T07:57:32.038Z,9.69
2017-03-18T07:58:32.812Z,9.68
2017-03-18T07:59:33.834Z,9.62
2017-03-18T08:00:34.602Z,9.66
2017-03-18T08:01:35.377Z,9.79
2017-03-18T08:02:36.181Z,9.73
2017-03-18T08:03:37.879Z,9.69
2017-03-18T08:04:38.898Z,9.74
2017-03-18T08:05:39.674Z,9.76
2017-03-18T08:06:40.443Z,9.79
2017-03-18T08:07:41.213Z,9.73
2017-03-18T08:08:41.985Z,9.77
2017-03-18T08:09:43.005Z,9.76
2017-03-18T08:10:43.778Z,9.82
2017-03-18T08:11:44.550Z,9.73
2017-03-18T08:12:45.323Z,9.76
2017-03-18T08:13:46.090Z,9.83
2017-03-18T08:14:47.113Z,9.89
2017-03-18T08:15:47.887Z,9.76
2017-03-18T08:16:48.659Z,9.80
2017-03-18T08:17:49.432Z,9.77
2017-03-18T08:18:50.389Z,9.84
2017-03-18T08:19:51.408Z,9.82
2017-03-18T08:20:52.178Z,9.92
2017-03-18T08:21:52.948Z,9.87
2017-03-18T08:22:53.719Z,9.86
2017-03-18T08:23:54.488Z,9.98
2017-03-18T08:24:55.561Z,9.97
2017-03-18T08:25:56.333Z,9.95
2017-03-18T08:26:57.104Z,9.95
2017-03-18T08:27:57.876Z,9.89
2017-03-18T08:28:58.647Z,9.94
2017-03-18T08:29:59.671Z,9.80
2017-03-18T08:31:00.446Z,9.84
2017-03-18T08:32:01.218Z,9.82
2017-03-18T08:33:01.990Z,9.80
2017-03-18T08:34:02.763Z,9.79
2017-03-18T08:35:03.787Z,9.86
2017-03-18T08:36:04.559Z,9.80
2017-03-18T08:37:05.333Z,9.89
2017-03-18T08:38:06.104Z,9.80
2017-03-18T08:39:06.876Z,9.86
2017-03-18T08:40:07.897Z,9.83
2017-03-18T08:41:08.669Z,9.83
2017-03-18T08:42:09.442Z,9.84
2017-03-18T08:43:10.213Z,9.87
2017-03-18T08:44:10.984Z,9.82
2017-03-18T08:45:12.007Z,9.89
2017-03-18T08:46:12.779Z,9.92
2017-03-18T08:47:13.551Z,9.92
2017-03-18T08:48:14.324Z,9.91
2017-03-18T08:49:15.092Z,9.83
2017-03-18T08:50:16.116Z,9.87
2017-03-18T08:51:16.886Z,9.87
2017-03-18T08:52:17.657Z,9.84
2017-03-18T08:53:18.429Z,9.83
2017-03-18T08:54:19.200Z,9.86
2017-03-18T08:55:20.224Z,9.87
2017-03-18T08:56:20.999Z,9.87
2017-03-18T08:57:21.769Z,9.79
2017-03-18T08:58:22.536Z,9.74
2017-03-18T08:59:23.313Z,9.89
2017-03-18T09:00:24.337Z,10.02
2017-03-18T09:01:25.108Z,9.99
2017-03-18T09:02:25.882Z,10.07
2017-03-18T09:03:26.654Z,10.05
2017-03-18T09:04:27.428Z,10.01
2017-03-18T09:05:28.454Z,9.95
2017-03-18T09:06:29.227Z,9.89
2017-03-18T09:07:30.031Z,10.01
2017-03-18T09:08:30.776Z,10.01
2017-03-18T09:09:31.549Z,9.98
2017-03-18T09:10:32.574Z,10.05
2017-03-18T09:11:33.348Z,10.02
2017-03-18T09:12:34.120Z,10.13
2017-03-18T09:13:34.898Z,10.13
2017-03-18T09:14:35.865Z,10.16
2017-03-18T09:15:36.890Z,10.20
2017-03-18T09:16:37.667Z,10.22
2017-03-18T09:17:38.442Z,10.31
2017-03-18T09:18:39.217Z,10.26
2017-03-18T09:19:39.992Z,10.22
2017-03-18T09:20:41.019Z,10.31
2017-03-18T09:21:41.794Z,10.44
2017-03-18T09:22:42.571Z,10.37
2017-03-18T09:23:43.348Z,10.26
2017-03-18T09:24:44.123Z,10.34
2017-03-18T09:25:45.149Z,10.37
2017-03-18T09:26:45.923Z,10.48
2017-03-18T09:27:46.697Z,10.46
2017-03-18T09:28:47.473Z,10.44
2017-03-18T09:29:48.248Z,10.49
2017-03-18T09:30:49.273Z,10.57
2017-03-18T09:31:50.051Z,10.53
2017-03-18T09:32:51.012Z,10.53
2017-03-18T09:33:51.790Z,10.60
2017-03-18T09:34:52.564Z,10.56
2017-03-18T09:35:53.588Z,10.56
2017-03-18T09:36:54.364Z,10.61
2017-03-18T09:37:55.136Z,10.56
2017-03-18T09:38:55.911Z,10.53
2017-03-18T09:39:56.686Z,10.53
2017-03-18T09:40:57.708Z,10.53
2017-03-18T09:41:58.486Z,10.49
2017-03-18T09:42:59.257Z,10.40
2017-03-18T09:44:00.032Z,10.35
2017-03-18T09:45:00.806Z,10.22
2017-03-18T09:46:01.831Z,10.09
2017-03-18T09:47:02.603Z,10.05
2017-03-18T09:48:03.377Z,10.07
2017-03-18T09:49:04.150Z,9.97
2017-03-18T09:50:04.922Z,9.83
2017-03-18T09:51:05.946Z,9.77
2017-03-18T09:52:06.721Z,9.77
2017-03-18T09:53:07.496Z,9.91
2017-03-18T09:54:08.267Z,9.86
2017-03-18T09:55:09.041Z,9.74
2017-03-18T09:56:10.066Z,9.73
2017-03-18T09:57:10.837Z,9.83
2017-03-18T09:58:11.612Z,9.73
2017-03-18T09:59:12.413Z,9.74
2017-03-18T10:00:13.187Z,9.82
2017-03-18T10:01:14.210Z,9.74
2017-03-18T10:02:14.984Z,9.80
2017-03-18T10:03:15.757Z,9.79
2017-03-18T10:04:16.529Z,9.80
2017-03-18T10:05:17.300Z,9.84
2017-03-18T10:06:18.323Z,9.97
2017-03-18T10:07:19.096Z,10.02
2017-03-18T10:08:19.873Z,10.04
2017-03-18T10:09:20.651Z,10.02
2017-03-18T10:10:21.427Z,10.09
2017-03-18T10:11:22.504Z,10.20
2017-03-18T10:12:23.286Z,10.20
2017-03-18T10:13:24.059Z,10.34
2017-03-18T10:14:24.835Z,10.38
2017-03-18T10:15:25.612Z,10.42
2017-03-18T10:16:26.635Z,10.48
2017-03-18T10:17:27.416Z,10.41
2017-03-18T10:18:28.380Z,10.46
2017-03-18T10:19:29.161Z,10.44
2017-03-18T10:20:29.942Z,10.53
2017-03-18T10:21:31.021Z,10.46
2017-03-18T10:22:31.800Z,10.57
2017-03-18T10:23:32.574Z,10.53
2017-03-18T10:24:33.350Z,10.49
2017-03-18T10:25:34.133Z,10.42
2017-03-18T10:26:35.160Z,10.48
2017-03-18T10:27:35.942Z,10.46
2017-03-18T10:28:36.717Z,10.41
2017-03-18T10:29:37.495Z,10.48
2017-03-18T10:30:38.271Z,10.46
2017-03-18T10:31:39.297Z,10.46
2017-03-18T10:32:40.077Z,10.42
2017-03-18T10:33:40.855Z,10.41
2017-03-18T10:34:41.629Z,10.42
2017-03-18T10:35:42.407Z,10.54
2017-03-18T10:36:43.433Z,10.59
2017-03-18T10:37:44.210Z,10.54
2017-03-18T10:38:44.987Z,10.54
2017-03-18T10:39:45.765Z,10.54
2017-03-18T10:40:46.540Z,10.60
2017-03-18T10:41:47.567Z,10.61
2017-03-18T10:42:48.346Z,10.53
2017-03-18T10:43:49.124Z,10.54
2017-03-18T10:44:49.910Z,10.68
2017-03-18T10:45:50.683Z,10.63
2017-03-18T10:46:51.714Z,10.68
2017-03-18T10:47:52.491Z,10.68
2017-03-18T10:48:53.273Z,10.67
2017-03-18T10:49:54.050Z,10.79
2017-03-18T10:50:54.827Z,10.81
2017-03-18T10:51:55.904Z,10.84
2017-03-18T10:52:56.683Z,10.79
2017-03-18T10:53:57.460Z,10.81
2017-03-18T10:54:58.235Z,10.84
2017-03-18T10:55:59.010Z,10.84
2017-03-18T10:57:00.045Z,10.94
2017-03-18T10:58:00.823Z,10.93
2017-03-18T10:59:01.600Z,11.00
2017-03-18T11:00:02.379Z,10.94
2017-03-18T11:01:03.157Z,11.04
2017-03-18T11:02:04.184Z,11.07
2017-03-18T11:03:04.966Z,11.02
2017-03-18T11:04:05.746Z,11.04
2017-03-18T11:05:06.523Z,11.07
2017-03-18T11:06:07.304Z,11.18
2017-03-18T11:07:08.342Z,11.29
2017-03-18T11:08:09.120Z,11.19
2017-03-18T11:09:09.901Z,11.23
2017-03-18T11:10:10.674Z,11.19
2017-03-18T11:11:11.457Z,11.27
2017-03-18T11:12:12.483Z,11.26
2017-03-18T11:13:13.264Z,11.35
2017-03-18T11:14:14.045Z,11.44
2017-03-18T11:15:14.828Z,11.47
2017-03-18T11:16:15.605Z,11.50
2017-03-18T11:17:16.633Z,11.63
2017-03-18T11:18:17.413Z,11.68
2017-03-18T11:19:18.192Z,11.75
2017-03-18T11:20:18.973Z,12.04
2017-03-18T11:21:19.755Z,12.18
2017-03-18T11:22:20.788Z,12.24
2017-03-18T11:23:21.570Z,12.45
2017-03-18T11:24:22.352Z,12.49
2017-03-18T11:25:23.132Z,12.60
2017-03-18T11:26:23.915Z,12.61
2017-03-18T11:27:24.946Z,12.76
2017-03-18T11:28:25.728Z,12.83
2017-03-18T11:29:26.511Z,12.72
2017-03-18T11:30:27.294Z,12.70
2017-03-18T11:31:28.077Z,12.57
2017-03-18T11:32:29.112Z,12.46
2017-03-18T11:33:29.896Z,12.31
2017-03-18T11:34:30.676Z,12.25
2017-03-18T11:35:31.454Z,12.18
2017-03-18T11:36:32.236Z,12.13
2017-03-18T11:37:33.264Z,12.10
2017-03-18T11:38:34.046Z,12.03
2017-03-18T11:39:34.826Z,12.02
2017-03-18T11:40:35.607Z,12.02
2017-03-18T11:41:36.386Z,12.06
2017-03-18T11:42:37.413Z,12.06
2017-03-18T11:43:38.193Z,11.91
2017-03-18T11:44:38.974Z,11.78
2017-03-18T11:45:39.756Z,11.70
2017-03-18T11:46:40.537Z,11.65
2017-03-18T11:47:41.567Z,11.57
2017-03-18T11:48:42.344Z,11.59
2017-03-18T11:49:43.126Z,11.44
2017-03-18T11:50:43.941Z,11.37
2017-03-18T11:51:44.685Z,11.41
2017-03-18T11:52:45.713Z,11.40
2017-03-18T11:53:46.494Z,11.32
2017-03-18T11:54:47.461Z,11.35
2017-03-18T11:55:48.241Z,11.40
2017-03-18T11:56:49.017Z,11.30
2017-03-18T11:57:50.096Z,11.30
2017-03-18T11:58:50.873Z,11.30
2017-03-18T11:59:51.651Z,11.27
2017-03-18T12:00:52.427Z,11.19
2017-03-18T12:01:53.207Z,11.10
2017-03-18T12:02:54.234Z,11.23
2017-03-18T12:03:55.012Z,11.23
2017-03-18T12:04:55.786Z,11.29
2017-03-18T12:05:56.562Z,11.37
2017-03-18T12:06:57.342Z,11.32
2017-03-18T12:07:58.369Z,11.30
2017-03-18T12:08:59.149Z,11.32
2017-03-18T12:09:59.926Z,11.35
2017-03-18T12:11:00.705Z,11.32
2017-03-18T12:12:01.481Z,11.33
2017-03-18T12:13:02.508Z,11.33
2017-03-18T12:14:03.287Z,11.26
2017-03-18T12:15:04.062Z,11.14
2017-03-18T12:16:04.840Z,11.14
2017-03-18T12:17:05.621Z,11.23
2017-03-18T12:18:06.649Z,11.17
2017-03-18T12:19:07.426Z,11.29
2017-03-18T12:20:08.208Z,11.35
2017-03-18T12:21:08.986Z,11.40
2017-03-18T12:22:09.761Z,11.43
2017-03-18T12:23:10.841Z,11.36
2017-03-18T12:24:11.617Z,11.47
2017-03-18T12:25:12.398Z,11.55
2017-03-18T12:26:13.176Z,11.70
2017-03-18T12:27:13.958Z,11.63
2017-03-18T12:28:14.985Z,11.72
2017-03-18T12:29:15.769Z,11.80
2017-03-18T12:30:16.543Z,11.80
2017-03-18T12:31:17.323Z,11.69
2017-03-18T12:32:18.102Z,11.72
2017-03-18T12:33:19.128Z,11.57
2017-03-18T12:34:19.913Z,11.55
2017-03-18T12:35:20.687Z,11.66
2017-03-18T12:36:21.469Z,11.55
2017-03-18T12:37:22.246Z,11.73
2017-03-18T12:38:23.277Z,11.75
2017-03-18T12:39:24.056Z,11.66
2017-03-18T12:40:24.836Z,11.57
2017-03-18T12:41:25.615Z,11.54
2017-03-18T12:42:26.393Z,11.75
2017-03-18T12:43:27.424Z,11.87
2017-03-18T12:44:28.202Z,11.81
2017-03-18T12:45:29.003Z,11.97
2017-03-18T12:46:29.786Z,11.97
2017-03-18T12:47:30.565Z,11.97
2017-03-18T12:48:31.591Z,11.81
2017-03-18T12:49:32.370Z,11.80
2017-03-18T12:50:33.151Z,11.70
2017-03-18T12:51:33.926Z,11.75
2017-03-18T12:52:34.705Z,11.73
2017-03-18T12:53:35.982Z,11.62
2017-03-18T12:54:36.760Z,11.65
2017-03-18T12:55:37.539Z,11.57
2017-03-18T12:56:38.315Z,11.47
2017-03-18T12:57:39.095Z,11.41
2017-03-18T12:58:40.170Z,11.35
2017-03-18T12:59:40.947Z,11.41
2017-03-18T13:00:41.723Z,11.40
2017-03-18T13:01:42.505Z,11.35
2017-03-18T13:02:43.280Z,11.37
2017-03-18T13:03:44.308Z,11.30
2017-03-18T13:04:45.084Z,11.27
2017-03-18T13:05:45.858Z,11.23
2017-03-18T13:06:46.635Z,11.18
2017-03-18T13:07:47.412Z,11.25
2017-03-18T13:08:48.489Z,11.18
2017-03-18T13:09:49.268Z,11.33
2017-03-18T13:10:50.048Z,11.27
2017-03-18T13:11:50.825Z,11.35
2017-03-18T13:12:51.602Z,11.44
2017-03-18T13:13:52.681Z,11.41
2017-03-18T13:14:53.461Z,11.48
2017-03-18T13:15:54.240Z,11.45
2017-03-18T13:16:55.017Z,11.57
2017-03-18T13:17:55.794Z,11.52
2017-03-18T13:18:56.822Z,11.57
2017-03-18T13:19:57.599Z,11.62
2017-03-18T13:20:58.379Z,11.59